Jiaxing, China
Current Conditions -  °F | °C
As of 11:00 PM on Saturday 20 Dec 2014 (Local Time) from ZSHC Reporting Station
Clear Clear  
Wind Chill: 36°   Ceiling: Unl
Heat Index: 36°   Visibility: 5mi
Dew Point: 23°   Wind: 0mph
Humidity: 60%   Direction: NA
Pressure: 30.42"   Gusts: NA
Location:  30.77°N, 120.75°E
Report Text: ZSHC 201500Z 00000MPS 8000 NSC 02/M05 Q1030 NOSIG
Loading
Personal Weather Stations






























Interactive Weather Map New forecast layout! Learn more

10-Day Weather Forecast

Advertisements
Track Severe Weather on mobile